createdAt,value
2019-06-01T00:01:16.185Z,98045.27
2019-06-01T00:03:46.473Z,98044.74
2019-06-01T00:06:16.232Z,98044.29
2019-06-01T00:08:47.127Z,98041.58
2019-06-01T00:11:17.087Z,98045.08
2019-06-01T00:13:47.683Z,98042.70
2019-06-01T00:16:17.482Z,98043.88
2019-06-01T00:18:48.340Z,98040.52
2019-06-01T00:21:17.935Z,98039.34
2019-06-01T00:23:48.708Z,98031.09
2019-06-01T00:26:18.304Z,98033.73
2019-06-01T00:28:47.961Z,98041.65
2019-06-01T00:31:17.719Z,98045.69
2019-06-01T00:33:47.708Z,98042.10
2019-06-01T00:36:17.126Z,98041.72
2019-06-01T00:38:47.837Z,98037.77
2019-06-01T00:41:17.370Z,98032.75
2019-06-01T00:43:48.457Z,98030.91
2019-06-01T00:46:18.452Z,98025.89
2019-06-01T00:48:47.960Z,98029.31
2019-06-01T00:51:17.537Z,98024.83
2019-06-01T00:53:47.346Z,98024.27
2019-06-01T00:56:17.162Z,98020.95
2019-06-01T00:58:47.847Z,98019.09
2019-06-01T01:01:17.448Z,98015.02
2019-06-01T01:03:48.126Z,98009.17
2019-06-01T01:06:18.031Z,98012.37
2019-06-01T01:08:48.897Z,98007.62
2019-06-01T01:11:18.660Z,98001.81
2019-06-01T01:13:49.233Z,98002.80
2019-06-01T01:16:18.857Z,98000.88
2019-06-01T01:18:49.653Z,98002.19
2019-06-01T01:21:19.172Z,98002.57
2019-06-01T01:23:48.792Z,98003.44
2019-06-01T01:26:18.484Z,97993.21
2019-06-01T01:28:48.788Z,97993.97
2019-06-01T01:31:18.506Z,97998.71
2019-06-01T01:33:49.358Z,97994.30
2019-06-01T01:36:19.087Z,97996.15
2019-06-01T01:38:50.358Z,97992.64
2019-06-01T01:41:20.115Z,97986.38
2019-06-01T01:43:50.393Z,97987.98
2019-06-01T01:46:20.097Z,97988.70
2019-06-01T01:48:49.908Z,97988.09
2019-06-01T01:51:19.658Z,97982.56
2019-06-01T01:53:50.500Z,97986.30
2019-06-01T01:56:19.983Z,97983.58
2019-06-01T01:58:50.314Z,97976.06
2019-06-01T02:01:22.638Z,97970.79
2019-06-01T02:03:52.203Z,97967.61
2019-06-01T02:06:22.927Z,97976.78
2019-06-01T02:08:53.528Z,97974.83
2019-06-01T02:11:23.129Z,97974.13
2019-06-01T02:13:53.628Z,97979.33
2019-06-01T02:16:23.417Z,97980.40
2019-06-01T02:18:54.321Z,97977.91
2019-06-01T02:21:24.164Z,97987.23
2019-06-01T02:23:54.843Z,97981.78
2019-06-01T02:26:24.526Z,97981.53
2019-06-01T02:28:55.314Z,97974.70
2019-06-01T02:31:39.927Z,97973.45
2019-06-01T02:33:56.985Z,97970.61
2019-06-01T02:36:27.735Z,97972.30
2019-06-01T02:38:58.554Z,97976.80
2019-06-01T02:41:28.132Z,97971.52
2019-06-01T02:43:59.037Z,97977.74
2019-06-01T02:46:28.814Z,97982.72
2019-06-01T02:48:59.770Z,97979.67
2019-06-01T02:51:29.771Z,97974.63
2019-06-01T02:53:59.643Z,97973.83
2019-06-01T02:56:29.144Z,97980.44
2019-06-01T02:59:00.270Z,97977.64
2019-06-01T03:01:38.327Z,97985.41
2019-06-01T03:04:09.602Z,97985.82
2019-06-01T03:06:42.430Z,97987.67
2019-06-01T03:09:12.972Z,97990.23
2019-06-01T03:11:44.320Z,97992.27
2019-06-01T03:14:13.955Z,97990.00
2019-06-01T03:16:43.747Z,97992.27
2019-06-01T03:19:17.439Z,97991.97
2019-06-01T03:21:50.609Z,97995.14
2019-06-01T03:24:24.913Z,97993.89
2019-06-01T03:26:55.881Z,97996.13
2019-06-01T03:29:28.163Z,97996.13
2019-06-01T03:32:17.659Z,97992.95
2019-06-01T03:34:29.037Z,97994.98
2019-06-01T03:36:58.810Z,97997.27
2019-06-01T03:39:29.281Z,98000.95
2019-06-01T03:41:59.285Z,97993.90
2019-06-01T03:44:28.879Z,98001.21
2019-06-01T03:46:58.594Z,98003.17
2019-06-01T03:49:28.332Z,98002.48
2019-06-01T03:51:57.951Z,98006.20
2019-06-01T03:54:27.822Z,98002.66
2019-06-01T03:56:57.542Z,98008.48
2019-06-01T03:59:27.302Z,98007.42
2019-06-01T04:01:57.238Z,98015.11
2019-06-01T04:04:26.834Z,98012.31
2019-06-01T04:06:56.383Z,98016.28
2019-06-01T04:09:26.074Z,98014.05
2019-06-01T04:11:55.748Z,98013.80
2019-06-01T04:14:25.571Z,98018.23
2019-06-01T04:16:55.361Z,98016.30
2019-06-01T04:19:25.009Z,98019.56
2019-06-01T04:21:54.603Z,98015.05
2019-06-01T04:24:24.455Z,98019.56
2019-06-01T04:26:54.241Z,98021.50
2019-06-01T04:29:23.950Z,98028.17
2019-06-01T04:31:53.620Z,98030.31
2019-06-01T04:34:23.249Z,98030.09
2019-06-01T04:36:52.977Z,98028.14
2019-06-01T04:39:22.578Z,98035.11
2019-06-01T04:41:52.295Z,98032.28
2019-06-01T04:44:21.924Z,98031.80
2019-06-01T04:46:52.088Z,98034.48
2019-06-01T04:49:21.482Z,98037.36
2019-06-01T04:51:51.266Z,98041.73
2019-06-01T04:54:20.842Z,98037.41
2019-06-01T04:56:50.441Z,98036.17
2019-06-01T04:59:20.224Z,98037.88
2019-06-01T05:01:49.894Z,98040.28
2019-06-01T05:04:19.459Z,98035.94
2019-06-01T05:06:49.337Z,98035.77
2019-06-01T05:09:18.852Z,98033.35
2019-06-01T05:11:48.687Z,98037.52
2019-06-01T05:14:18.402Z,98032.69
2019-06-01T05:16:47.791Z,98039.56
2019-06-01T05:19:17.519Z,98035.77
2019-06-01T05:21:47.006Z,98040.09
2019-06-01T05:24:17.109Z,98039.69
2019-06-01T05:26:46.862Z,98036.72
2019-06-01T05:29:17.819Z,98028.05
2019-06-01T05:31:47.970Z,98031.91
2019-06-01T05:34:18.405Z,98036.47
2019-06-01T05:36:48.339Z,98042.41
2019-06-01T05:39:18.810Z,98035.52
2019-06-01T05:41:48.581Z,98034.41
2019-06-01T05:44:19.210Z,98027.92
2019-06-01T05:46:48.847Z,98033.08
2019-06-01T05:49:18.616Z,98032.84
2019-06-01T05:51:48.322Z,98036.23
2019-06-01T05:54:18.870Z,98034.96
2019-06-01T05:56:48.685Z,98038.89
2019-06-01T05:59:18.345Z,98036.73
2019-06-01T06:01:48.095Z,98033.56
2019-06-01T06:04:17.760Z,98040.88
2019-06-01T06:06:47.228Z,98043.06
2019-06-01T06:09:17.168Z,98036.22
2019-06-01T06:11:46.925Z,98035.45
2019-06-01T06:14:17.576Z,98045.16
2019-06-01T06:16:47.186Z,98046.62
2019-06-01T06:19:19.233Z,98046.00
2019-06-01T06:21:48.474Z,98038.28
2019-06-01T06:24:18.617Z,98044.01
2019-06-01T06:26:48.284Z,98046.80
2019-06-01T06:29:18.928Z,98046.70
2019-06-01T06:31:48.567Z,98046.14
2019-06-01T06:34:19.588Z,98043.52
2019-06-01T06:36:49.262Z,98042.95
2019-06-01T06:39:20.040Z,98046.85
2019-06-01T06:41:49.565Z,98042.01
2019-06-01T06:44:20.515Z,98042.51
2019-06-01T06:46:50.484Z,98042.67
2019-06-01T06:49:21.315Z,98038.35
2019-06-01T06:51:50.774Z,98043.10
2019-06-01T06:54:21.860Z,98037.48
2019-06-01T06:56:51.741Z,98044.69
2019-06-01T06:59:22.386Z,98040.89
2019-06-01T07:01:54.098Z,98037.35
2019-06-01T07:04:23.886Z,98045.31
2019-06-01T07:06:53.440Z,98043.58
2019-06-01T07:09:23.964Z,98040.47
2019-06-01T07:11:53.592Z,98040.67
2019-06-01T07:14:23.561Z,98039.12
2019-06-01T07:16:53.199Z,98036.63
2019-06-01T07:19:23.767Z,98032.23
2019-06-01T07:21:53.257Z,98033.14
2019-06-01T07:24:23.787Z,98031.23
2019-06-01T07:26:53.592Z,98033.95
2019-06-01T07:29:24.175Z,98032.94
2019-06-01T07:31:53.728Z,98032.52
2019-06-01T07:34:33.302Z,98026.87
2019-06-01T07:36:54.480Z,98022.67
2019-06-01T07:39:24.840Z,98030.08
2019-06-01T07:41:54.899Z,98032.66
2019-06-01T07:44:24.987Z,98031.82
2019-06-01T07:46:54.487Z,98029.86
2019-06-01T07:49:25.013Z,98031.22
2019-06-01T07:51:54.559Z,98034.15
2019-06-01T07:54:24.857Z,98030.57
2019-06-01T07:56:54.291Z,98029.82
2019-06-01T07:59:24.579Z,98025.42
2019-06-01T08:01:55.346Z,98027.44
2019-06-01T08:04:26.684Z,98030.27
2019-06-01T08:06:56.201Z,98034.92
2019-06-01T08:09:26.524Z,98034.50
2019-06-01T08:11:56.965Z,98029.95
2019-06-01T08:14:26.546Z,98031.19
2019-06-01T08:16:56.070Z,98033.09
2019-06-01T08:19:26.022Z,98032.44
2019-06-01T08:21:55.738Z,98023.25
2019-06-01T08:24:26.225Z,98037.50
2019-06-01T08:26:56.108Z,98032.08
2019-06-01T08:29:26.621Z,98030.55
2019-06-01T08:31:56.335Z,98029.14
2019-06-01T08:34:26.927Z,98028.43
2019-06-01T08:36:56.463Z,98029.14
2019-06-01T08:39:27.239Z,98027.56
2019-06-01T08:41:56.913Z,98029.41
2019-06-01T08:44:27.724Z,98031.88
2019-06-01T08:46:57.689Z,98026.33
2019-06-01T08:49:28.005Z,98027.09
2019-06-01T08:51:57.791Z,98023.41
2019-06-01T08:54:28.138Z,98024.16
2019-06-01T08:56:58.237Z,98027.83
2019-06-01T08:59:28.409Z,98025.88
2019-06-01T09:01:57.974Z,98032.09
2019-06-01T09:04:28.722Z,98036.84
2019-06-01T09:06:58.271Z,98028.95
2019-06-01T09:09:28.882Z,98025.91
2019-06-01T09:11:58.367Z,98028.21
2019-06-01T09:14:29.098Z,98019.12
2019-06-01T09:16:58.722Z,98021.80
2019-06-01T09:19:29.414Z,98023.02
2019-06-01T09:21:59.002Z,98022.91
2019-06-01T09:24:29.759Z,98029.16
2019-06-01T09:26:59.269Z,98029.26
2019-06-01T09:29:29.862Z,98026.95
2019-06-01T09:31:59.539Z,98020.52
2019-06-01T09:34:30.343Z,98025.48
2019-06-01T09:37:00.002Z,98011.94
2019-06-01T09:39:30.964Z,98011.56
2019-06-01T09:42:00.775Z,98011.02
2019-06-01T09:44:31.967Z,98006.94
2019-06-01T09:47:01.499Z,98008.67
2019-06-01T09:49:32.646Z,98000.27
2019-06-01T09:52:02.940Z,97993.85
2019-06-01T09:54:34.438Z,97993.89
2019-06-01T09:57:04.213Z,97985.35
2019-06-01T09:59:34.138Z,97985.35
2019-06-01T10:02:04.197Z,97985.61
2019-06-01T10:04:34.426Z,97984.53
2019-06-01T10:07:04.216Z,97992.67
2019-06-01T10:09:34.017Z,97984.12
2019-06-01T10:12:03.425Z,97986.23
2019-06-01T10:14:33.964Z,97987.87
2019-06-01T10:17:03.980Z,97980.47
2019-06-01T10:19:34.650Z,97979.93
2019-06-01T10:22:04.139Z,97980.36
2019-06-01T10:24:34.884Z,97983.00
2019-06-01T10:27:05.069Z,97974.37
2019-06-01T10:29:34.746Z,97972.69
2019-06-01T10:32:04.318Z,97967.33
2019-06-01T10:34:34.094Z,97969.63
2019-06-01T10:37:03.796Z,97978.10
2019-06-01T10:39:33.292Z,97980.83
2019-06-01T10:42:02.695Z,97979.56
2019-06-01T10:44:36.731Z,97972.63
2019-06-01T10:47:03.957Z,97975.05
2019-06-01T10:49:33.843Z,97973.30
2019-06-01T10:52:03.515Z,97970.99
2019-06-01T10:54:34.305Z,97972.89
2019-06-01T10:57:03.739Z,97970.52
2019-06-01T10:59:34.252Z,97975.81
2019-06-01T11:02:03.871Z,97965.20
2019-06-01T11:04:34.871Z,97969.41
2019-06-01T11:07:04.625Z,97968.20
2019-06-01T11:09:34.849Z,97961.69
2019-06-01T11:12:04.500Z,97958.02
2019-06-01T11:14:34.857Z,97956.73
2019-06-01T11:17:04.256Z,97956.28
2019-06-01T11:19:35.226Z,97961.95
2019-06-01T11:22:05.030Z,97964.64
2019-06-01T11:24:35.307Z,97967.91
2019-06-01T11:27:04.728Z,97958.80
2019-06-01T11:29:38.839Z,97947.56
2019-06-01T11:32:05.806Z,97948.36
2019-06-01T11:34:36.412Z,97946.59
2019-06-01T11:37:06.158Z,97946.63
2019-06-01T11:39:36.350Z,97948.38
2019-06-01T11:42:05.971Z,97945.50
2019-06-01T11:44:36.516Z,97937.03
2019-06-01T11:47:06.016Z,97936.61
2019-06-01T11:49:36.630Z,97938.79
2019-06-01T11:52:06.423Z,97945.89
2019-06-01T11:54:36.953Z,97951.87
2019-06-01T11:57:06.493Z,97941.89
2019-06-01T11:59:37.102Z,97937.15
2019-06-01T12:02:06.747Z,97936.38
2019-06-01T12:04:36.213Z,97941.31
2019-06-01T12:07:17.178Z,97934.14
2019-06-01T12:09:37.753Z,97931.49
2019-06-01T12:12:07.246Z,97934.70
2019-06-01T12:14:38.396Z,97933.20
2019-06-01T12:17:08.143Z,97930.77
2019-06-01T12:19:38.552Z,97924.46
2019-06-01T12:22:08.036Z,97925.69
2019-06-01T12:24:38.827Z,97920.19
2019-06-01T12:27:08.510Z,97919.06
2019-06-01T12:29:39.407Z,97919.16
2019-06-01T12:32:08.952Z,97915.48
2019-06-01T12:34:39.944Z,97920.42
2019-06-01T12:37:09.613Z,97916.83
2019-06-01T12:39:40.341Z,97915.47
2019-06-01T12:42:09.983Z,97918.75
2019-06-01T12:44:39.864Z,97918.80
2019-06-01T12:47:09.361Z,97915.73
2019-06-01T12:49:40.089Z,97914.31
2019-06-01T12:52:10.025Z,97906.55
2019-06-01T12:54:40.367Z,97902.48
2019-06-01T12:57:09.906Z,97909.41
2019-06-01T12:59:40.993Z,97902.81
2019-06-01T13:02:11.344Z,97903.70
2019-06-01T13:04:42.641Z,97901.19
2019-06-01T13:07:12.287Z,97897.41
2019-06-01T13:09:42.252Z,97889.47
2019-06-01T13:12:11.780Z,97890.47
2019-06-01T13:14:41.197Z,97898.05
2019-06-01T13:17:10.906Z,97896.53
2019-06-01T13:19:41.310Z,97891.19
2019-06-01T13:22:11.028Z,97896.21
2019-06-01T13:24:41.550Z,97883.58
2019-06-01T13:27:10.983Z,97890.72
2019-06-01T13:29:41.701Z,97890.28
2019-06-01T13:32:11.352Z,97885.84
2019-06-01T13:34:42.514Z,97881.33
2019-06-01T13:37:12.188Z,97878.38
2019-06-01T13:39:42.972Z,97883.45
2019-06-01T13:42:12.439Z,97875.09
2019-06-01T13:44:43.359Z,97873.95
2019-06-01T13:47:13.140Z,97876.91
2019-06-01T13:49:44.524Z,97873.91
2019-06-01T13:52:14.255Z,97876.27
2019-06-01T13:54:44.168Z,97878.37
2019-06-01T13:57:13.578Z,97875.70
2019-06-01T13:59:44.446Z,97868.69
2019-06-01T14:02:14.399Z,97872.05
2019-06-01T14:04:45.090Z,97865.70
2019-06-01T14:07:14.676Z,97861.98
2019-06-01T14:09:45.252Z,97854.68
2019-06-01T14:12:14.647Z,97846.91
2019-06-01T14:14:45.332Z,97851.17
2019-06-01T14:17:14.852Z,97852.52
2019-06-01T14:19:45.616Z,97848.30
2019-06-01T14:22:15.166Z,97846.47
2019-06-01T14:24:47.861Z,97848.51
2019-06-01T14:27:16.232Z,97848.55
2019-06-01T14:29:46.405Z,97842.75
2019-06-01T14:32:16.209Z,97843.58
2019-06-01T14:34:46.306Z,97838.70
2019-06-01T14:37:15.958Z,97838.34
2019-06-01T14:39:46.646Z,97838.67
2019-06-01T14:42:16.178Z,97836.66
2019-06-01T14:44:47.064Z,97831.13
2019-06-01T14:47:18.764Z,97831.23
2019-06-01T14:49:49.398Z,97826.98
2019-06-01T14:52:19.366Z,97835.31
2019-06-01T14:54:49.628Z,97824.92
2019-06-01T14:57:19.302Z,97827.44
2019-06-01T14:59:50.387Z,97824.95
2019-06-01T15:02:20.377Z,97817.00
2019-06-01T15:04:50.104Z,97828.63
2019-06-01T15:07:19.764Z,97828.23
2019-06-01T15:09:50.082Z,97824.98
2019-06-01T15:12:19.785Z,97824.13
2019-06-01T15:14:50.796Z,97819.64
2019-06-01T15:17:20.417Z,97821.81
2019-06-01T15:19:50.202Z,97817.47
2019-06-01T15:22:19.966Z,97813.11
2019-06-01T15:24:50.318Z,97815.78
2019-06-01T15:27:19.884Z,97821.64
2019-06-01T15:29:50.623Z,97820.81
2019-06-01T15:32:20.496Z,97817.27
2019-06-01T15:34:50.354Z,97814.25
2019-06-01T15:37:19.907Z,97801.72
2019-06-01T15:39:50.539Z,97806.69
2019-06-01T15:42:19.962Z,97797.94
2019-06-01T15:44:50.944Z,97803.44
2019-06-01T15:47:20.463Z,97803.27
2019-06-01T15:49:50.026Z,97801.15
2019-06-01T15:52:19.841Z,97811.14
2019-06-01T15:54:49.604Z,97806.72
2019-06-01T15:57:19.290Z,97818.45
2019-06-01T15:59:48.705Z,97818.39
2019-06-01T16:02:18.152Z,97816.53
2019-06-01T16:04:47.991Z,97821.69
2019-06-01T16:07:17.692Z,97821.58
2019-06-01T16:09:47.352Z,97830.79
2019-06-01T16:12:17.161Z,97822.03
2019-06-01T16:14:46.708Z,97832.27
2019-06-01T16:17:16.427Z,97832.02
2019-06-01T16:19:45.914Z,97831.51
2019-06-01T16:22:15.329Z,97832.02
2019-06-01T16:24:44.733Z,97836.35
2019-06-01T16:27:14.395Z,97834.80
2019-06-01T16:29:44.112Z,97837.97
2019-06-01T16:32:13.845Z,97839.45
2019-06-01T16:34:43.450Z,97842.30
2019-06-01T16:37:12.998Z,97841.24
2019-06-01T16:39:58.304Z,97847.16
2019-06-01T16:42:14.134Z,97836.33
2019-06-01T16:44:43.723Z,97841.02
2019-06-01T16:47:13.411Z,97835.59
2019-06-01T16:49:43.156Z,97839.58
2019-06-01T16:52:12.915Z,97835.63
2019-06-01T16:54:42.459Z,97841.80
2019-06-01T16:57:12.078Z,97844.75
2019-06-01T16:59:41.782Z,97837.00
2019-06-01T17:02:11.378Z,97838.19
2019-06-01T17:04:41.058Z,97832.43
2019-06-01T17:07:10.488Z,97836.73
2019-06-01T17:09:39.938Z,97835.23
2019-06-01T17:12:09.624Z,97839.05
2019-06-01T17:14:39.106Z,97835.59
2019-06-01T17:17:08.844Z,97836.97
2019-06-01T17:19:38.422Z,97831.85
2019-06-01T17:22:07.873Z,97829.45
2019-06-01T17:24:37.661Z,97836.86
2019-06-01T17:27:08.169Z,97834.20
2019-06-01T17:29:38.042Z,97845.51
2019-06-01T17:32:20.244Z,97844.82
2019-06-01T17:34:38.869Z,97843.71
2019-06-01T17:37:08.975Z,97847.78
2019-06-01T17:39:38.703Z,97846.30
2019-06-01T17:42:08.660Z,97850.67
2019-06-01T17:44:38.144Z,97853.02
2019-06-01T17:47:08.110Z,97846.81
2019-06-01T17:49:37.927Z,97850.00
2019-06-01T17:52:07.927Z,97853.66
2019-06-01T17:54:37.415Z,97855.47
2019-06-01T17:57:07.332Z,97855.59
2019-06-01T17:59:37.200Z,97860.08
2019-06-01T18:02:07.866Z,97857.67
2019-06-01T18:04:37.386Z,97860.29
2019-06-01T18:07:07.952Z,97858.34
2019-06-01T18:09:37.438Z,97860.27
2019-06-01T18:12:08.063Z,97853.94
2019-06-01T18:14:37.791Z,97850.99
2019-06-01T18:17:08.262Z,97859.44
2019-06-01T18:19:37.985Z,97855.81
2019-06-01T18:22:08.740Z,97853.57
2019-06-01T18:24:38.468Z,97853.09
2019-06-01T18:27:08.602Z,97848.35
2019-06-01T18:29:41.077Z,97854.39
2019-06-01T18:32:11.592Z,97848.84
2019-06-01T18:34:41.301Z,97858.44
2019-06-01T18:37:11.538Z,97860.13
2019-06-01T18:39:41.284Z,97857.69
2019-06-01T18:42:12.351Z,97859.77
2019-06-01T18:44:42.195Z,97864.00
2019-06-01T18:47:11.944Z,97868.47
2019-06-01T18:49:42.148Z,97873.52
2019-06-01T18:52:12.698Z,97882.13
2019-06-01T18:54:42.250Z,97886.94
2019-06-01T18:57:19.221Z,97886.62
2019-06-01T18:59:42.975Z,97890.74
2019-06-01T19:02:12.765Z,97896.15
2019-06-01T19:04:42.478Z,97903.68
2019-06-01T19:07:13.282Z,97894.80
2019-06-01T19:09:43.368Z,97893.41
2019-06-01T19:12:13.485Z,97908.84
2019-06-01T19:14:43.252Z,97914.03
2019-06-01T19:17:16.446Z,97914.03
2019-06-01T19:19:46.272Z,97917.22
2019-06-01T19:22:16.718Z,97922.14
2019-06-01T19:24:46.294Z,97925.19
2019-06-01T19:27:17.072Z,97921.49
2019-06-01T19:29:47.115Z,97927.50
2019-06-01T19:32:21.009Z,97933.91
2019-06-01T19:34:49.219Z,97938.48
2019-06-01T19:37:19.611Z,97936.84
2019-06-01T19:39:49.193Z,97926.28
2019-06-01T19:42:18.635Z,97925.99
2019-06-01T19:44:48.302Z,97915.69
2019-06-01T19:47:19.115Z,97916.39
2019-06-01T19:49:48.698Z,97912.55
2019-06-01T19:52:19.028Z,97910.26
2019-06-01T19:54:48.630Z,97913.73
2019-06-01T19:57:22.034Z,97917.67
2019-06-01T19:59:50.050Z,97928.16
2019-06-01T20:02:28.521Z,97935.50
2019-06-01T20:04:51.064Z,97934.80
2019-06-01T20:07:21.378Z,97935.29
2019-06-01T20:09:51.490Z,97939.91
2019-06-01T20:12:22.464Z,97929.04
2019-06-01T20:14:52.173Z,97927.86
2019-06-01T20:17:25.874Z,97924.38
2019-06-01T20:19:53.359Z,97924.30
2019-06-01T20:22:23.089Z,97921.31
2019-06-01T20:24:52.998Z,97922.71
2019-06-01T20:27:22.428Z,97927.56
2019-06-01T20:29:51.828Z,97929.53
2019-06-01T20:32:22.218Z,97931.20
2019-06-01T20:34:52.138Z,97937.52
2019-06-01T20:37:22.233Z,97940.38
2019-06-01T20:39:53.259Z,97934.36
2019-06-01T20:42:32.099Z,97935.22
2019-06-01T20:44:54.245Z,97939.80
2019-06-01T20:47:23.991Z,97946.45
2019-06-01T20:49:53.430Z,97951.89
2019-06-01T20:52:23.386Z,97954.59
2019-06-01T20:54:53.110Z,97952.75
2019-06-01T20:57:24.017Z,97953.42
2019-06-01T20:59:53.565Z,97964.23
2019-06-01T21:02:24.152Z,97969.51
2019-06-01T21:04:53.526Z,97982.62
2019-06-01T21:07:24.179Z,97983.27
2019-06-01T21:09:53.721Z,97982.47
2019-06-01T21:12:43.569Z,97986.92
2019-06-01T21:14:54.828Z,97979.44
2019-06-01T21:17:24.498Z,97981.80
2019-06-01T21:19:54.204Z,97985.44
2019-06-01T21:22:24.909Z,97982.03
2019-06-01T21:24:54.538Z,97978.99
2019-06-01T21:27:24.904Z,97979.52
2019-06-01T21:29:54.874Z,97973.96
2019-06-01T21:32:25.653Z,97976.28
2019-06-01T21:34:55.187Z,97973.16
2019-06-01T21:37:24.921Z,97972.71
2019-06-01T21:39:54.321Z,97970.10
2019-06-01T21:42:23.751Z,97962.38
2019-06-01T21:44:53.378Z,97964.70
2019-06-01T21:47:23.862Z,97974.17
2019-06-01T21:49:53.716Z,97976.75
2019-06-01T21:52:24.243Z,97976.88
2019-06-01T21:54:54.234Z,97969.92
2019-06-01T21:57:24.622Z,97963.63
2019-06-01T21:59:54.350Z,97959.67
2019-06-01T22:02:25.039Z,97965.44
2019-06-01T22:04:54.728Z,97967.89
2019-06-01T22:07:25.324Z,97962.38
2019-06-01T22:09:55.072Z,97961.00
2019-06-01T22:12:25.762Z,97975.66
2019-06-01T22:14:55.615Z,97970.98
2019-06-01T22:17:25.877Z,97968.55
2019-06-01T22:19:55.416Z,97979.01
2019-06-01T22:22:25.834Z,97984.62
2019-06-01T22:24:55.541Z,97984.31
2019-06-01T22:27:26.262Z,97984.14
2019-06-01T22:29:56.094Z,97984.98
2019-06-01T22:32:29.400Z,97986.98
2019-06-01T22:34:57.132Z,97990.61
2019-06-01T22:37:26.568Z,97998.00
2019-06-01T22:39:56.056Z,98002.25
2019-06-01T22:42:26.394Z,98001.42
2019-06-01T22:44:55.883Z,98011.19
2019-06-01T22:47:26.642Z,98014.61
2019-06-01T22:49:56.554Z,98016.97
2019-06-01T22:52:27.050Z,98019.25
2019-06-01T22:54:56.878Z,98022.28
2019-06-01T22:57:26.695Z,98022.84
2019-06-01T22:59:56.685Z,98015.64
2019-06-01T23:02:27.764Z,98023.25
2019-06-01T23:04:57.752Z,98023.70
2019-06-01T23:07:27.485Z,98020.41
2019-06-01T23:09:57.048Z,98018.77
2019-06-01T23:12:27.622Z,98016.41
2019-06-01T23:14:57.364Z,98016.67
2019-06-01T23:17:27.976Z,98014.43
2019-06-01T23:19:57.634Z,98012.02
2019-06-01T23:22:28.168Z,98009.58
2019-06-01T23:24:58.025Z,98001.51
2019-06-01T23:27:28.308Z,97999.50
2019-06-01T23:29:57.800Z,97987.45
2019-06-01T23:32:28.510Z,97984.04
2019-06-01T23:34:57.954Z,97985.48
2019-06-01T23:37:28.795Z,97979.31
2019-06-01T23:39:58.420Z,97981.87
2019-06-01T23:42:28.794Z,97978.55
2019-06-01T23:44:58.180Z,97980.17
2019-06-01T23:47:27.719Z,97973.41
2019-06-01T23:49:57.206Z,97972.83
2019-06-01T23:52:27.508Z,97968.85
2019-06-01T23:54:57.132Z,97970.19
2019-06-01T23:57:27.741Z,97973.23
2019-06-01T23:59:57.564Z,97972.11
